createdAt,value
2023-06-18T00:00:12.287Z,101466.63
2023-06-18T00:02:38.956Z,101467.66
2023-06-18T00:05:06.498Z,101469.47
2023-06-18T00:07:32.915Z,101469.00
2023-06-18T00:09:59.403Z,101464.63
2023-06-18T00:12:25.955Z,101464.63
2023-06-18T00:14:52.367Z,101471.00
2023-06-18T00:17:18.863Z,101464.97
2023-06-18T00:19:45.430Z,101467.31
2023-06-18T00:22:16.115Z,101462.66
2023-06-18T00:24:42.611Z,101465.16
2023-06-18T00:27:09.048Z,101462.66
2023-06-18T00:29:36.807Z,101461.78
2023-06-18T00:32:03.378Z,101458.59
2023-06-18T00:34:34.260Z,101461.28
2023-06-18T00:37:01.409Z,101457.94
2023-06-18T00:39:28.057Z,101458.91
2023-06-18T00:41:54.599Z,101460.06
2023-06-18T00:44:23.721Z,101457.72
2023-06-18T00:46:52.437Z,101453.56
2023-06-18T00:49:19.816Z,101445.50
2023-06-18T00:51:47.455Z,101444.69
2023-06-18T00:54:16.606Z,101447.50
2023-06-18T00:56:51.951Z,101449.19
2023-06-18T00:59:22.444Z,101444.81
2023-06-18T01:01:58.557Z,101439.78
2023-06-18T01:04:30.510Z,101443.31
2023-06-18T01:06:58.745Z,101433.75
2023-06-18T01:09:27.869Z,101434.75
2023-06-18T01:11:55.042Z,101433.06
2023-06-18T01:14:23.679Z,101433.06
2023-06-18T01:16:50.924Z,101434.91
2023-06-18T01:19:42.079Z,101430.34
2023-06-18T01:22:21.334Z,101437.53
2023-06-18T01:24:55.513Z,101433.34
2023-06-18T01:27:25.108Z,101433.34
2023-06-18T01:29:52.365Z,101435.03
2023-06-18T01:32:20.750Z,101429.97
2023-06-18T01:34:48.917Z,101433.97
2023-06-18T01:37:25.788Z,101431.75
2023-06-18T01:39:57.716Z,101427.91
2023-06-18T01:42:27.761Z,101421.72
2023-06-18T01:45:27.376Z,101428.25
2023-06-18T01:47:57.075Z,101432.91
2023-06-18T01:50:27.600Z,101427.56
2023-06-18T01:52:54.911Z,101422.34
2023-06-18T01:55:23.112Z,101425.19
2023-06-18T01:57:49.780Z,101425.66
2023-06-18T02:00:16.268Z,101425.28
2023-06-18T02:02:43.600Z,101425.47
2023-06-18T02:05:11.006Z,101432.81
2023-06-18T02:07:37.487Z,101427.41
2023-06-18T02:10:05.784Z,101421.09
2023-06-18T02:12:32.373Z,101414.84
2023-06-18T02:14:59.018Z,101420.50
2023-06-18T02:17:27.272Z,101413.69
2023-06-18T02:19:53.964Z,101417.38
2023-06-18T02:22:20.904Z,101415.53
2023-06-18T02:24:47.282Z,101406.38
2023-06-18T02:27:13.681Z,101407.97
2023-06-18T02:29:40.080Z,101407.22
2023-06-18T02:32:06.690Z,101409.53
2023-06-18T02:34:33.107Z,101403.78
2023-06-18T02:36:59.560Z,101405.47
2023-06-18T02:39:26.042Z,101398.91
2023-06-18T02:41:52.468Z,101406.44
2023-06-18T02:44:19.304Z,101404.63
2023-06-18T02:46:45.793Z,101405.16
2023-06-18T02:49:12.337Z,101400.66
2023-06-18T02:51:38.710Z,101398.28
2023-06-18T02:54:05.251Z,101399.81
2023-06-18T02:56:31.963Z,101389.94
2023-06-18T02:58:58.472Z,101393.06
2023-06-18T03:01:25.707Z,101390.72
2023-06-18T03:03:52.661Z,101390.34
2023-06-18T03:06:19.072Z,101388.50
2023-06-18T03:08:47.331Z,101390.19
2023-06-18T03:11:13.689Z,101389.34
2023-06-18T03:13:40.137Z,101384.44
2023-06-18T03:16:07.020Z,101389.78
2023-06-18T03:18:34.298Z,101381.63
2023-06-18T03:21:00.790Z,101386.50
2023-06-18T03:23:27.453Z,101386.50
2023-06-18T03:25:53.872Z,101385.91
2023-06-18T03:28:20.311Z,101387.81
2023-06-18T03:30:46.834Z,101389.34
2023-06-18T03:33:13.261Z,101390.50
2023-06-18T03:35:39.839Z,101389.81
2023-06-18T03:38:06.266Z,101392.31
2023-06-18T03:40:32.727Z,101393.31
2023-06-18T03:42:59.150Z,101395.97
2023-06-18T03:45:26.545Z,101397.97
2023-06-18T03:47:53.207Z,101397.97
2023-06-18T03:50:19.701Z,101398.66
2023-06-18T03:52:46.266Z,101399.13
2023-06-18T03:55:12.811Z,101396.47
2023-06-18T03:57:39.686Z,101397.28
2023-06-18T04:00:08.488Z,101392.78
2023-06-18T04:02:34.959Z,101394.94
2023-06-18T04:05:01.588Z,101396.63
2023-06-18T04:07:28.011Z,101396.63
2023-06-18T04:09:54.458Z,101398.59
2023-06-18T04:12:20.965Z,101387.88
2023-06-18T04:14:47.410Z,101399.41
2023-06-18T04:17:13.772Z,101400.28
2023-06-18T04:19:40.206Z,101405.47
2023-06-18T04:22:06.941Z,101411.81
2023-06-18T04:24:33.401Z,101414.47
2023-06-18T04:26:59.910Z,101410.28
2023-06-18T04:29:26.705Z,101410.59
2023-06-18T04:31:53.195Z,101420.31
2023-06-18T04:34:19.709Z,101410.44
2023-06-18T04:36:46.194Z,101418.31
2023-06-18T04:39:12.624Z,101416.31
2023-06-18T04:41:38.993Z,101413.25
2023-06-18T04:44:05.580Z,101420.31
2023-06-18T04:46:33.926Z,101420.31
2023-06-18T04:49:00.592Z,101414.69
2023-06-18T04:51:27.050Z,101423.81
2023-06-18T04:53:53.543Z,101419.22
2023-06-18T04:56:20.360Z,101419.06
2023-06-18T04:58:46.810Z,101412.00
2023-06-18T05:01:13.220Z,101413.84
2023-06-18T05:03:39.686Z,101415.56
2023-06-18T05:06:06.240Z,101414.69
2023-06-18T05:08:33.098Z,101411.19
2023-06-18T05:10:59.450Z,101413.88
2023-06-18T05:13:25.865Z,101413.59
2023-06-18T05:15:52.269Z,101413.88
2023-06-18T05:18:18.714Z,101412.91
2023-06-18T05:20:45.816Z,101412.75
2023-06-18T05:23:13.274Z,101408.25
2023-06-18T05:25:39.761Z,101414.59
2023-06-18T05:28:06.244Z,101412.06
2023-06-18T05:30:32.770Z,101416.72
2023-06-18T05:32:59.248Z,101416.16
2023-06-18T05:35:25.889Z,101415.38
2023-06-18T05:37:52.473Z,101413.66
2023-06-18T05:40:19.079Z,101419.06
2023-06-18T05:42:47.318Z,101419.63
2023-06-18T05:45:13.943Z,101421.16
2023-06-18T05:47:40.600Z,101425.50
2023-06-18T05:50:07.623Z,101422.59
2023-06-18T05:52:34.039Z,101422.59
2023-06-18T05:55:00.462Z,101436.63
2023-06-18T05:57:27.484Z,101439.63
2023-06-18T05:59:54.238Z,101443.69
2023-06-18T06:02:20.740Z,101438.88
2023-06-18T06:04:47.251Z,101435.72
2023-06-18T06:07:13.769Z,101430.09
2023-06-18T06:09:40.356Z,101432.06
2023-06-18T06:12:07.106Z,101432.75
2023-06-18T06:14:33.448Z,101432.75
2023-06-18T06:16:59.947Z,101424.75
2023-06-18T06:19:27.095Z,101426.56
2023-06-18T06:21:53.565Z,101429.22
2023-06-18T06:26:46.442Z,101418.84
2023-06-18T06:29:13.044Z,101424.59
2023-06-18T06:31:39.606Z,101425.66
2023-06-18T06:34:05.988Z,101431.25
2023-06-18T06:36:32.446Z,101428.13
2023-06-18T06:38:58.822Z,101428.94
2023-06-18T06:41:25.251Z,101428.78
2023-06-18T06:43:51.994Z,101422.13
2023-06-18T06:46:18.563Z,101420.84
2023-06-18T06:48:45.015Z,101422.50
2023-06-18T06:51:11.410Z,101423.03
2023-06-18T06:53:37.794Z,101427.25
2023-06-18T06:56:04.710Z,101423.56
2023-06-18T06:58:31.181Z,101419.91
2023-06-18T07:00:57.682Z,101431.28
2023-06-18T07:03:24.428Z,101434.66
2023-06-18T07:05:51.175Z,101439.72
2023-06-18T07:08:17.647Z,101432.69
2023-06-18T07:10:44.117Z,101442.09
2023-06-18T07:13:10.766Z,101437.41
2023-06-18T07:15:37.120Z,101436.28
2023-06-18T07:18:03.728Z,101433.13
2023-06-18T07:20:30.274Z,101431.97
2023-06-18T07:22:56.636Z,101432.81
2023-06-18T07:25:23.052Z,101427.16
2023-06-18T07:27:49.556Z,101443.59
2023-06-18T07:30:15.980Z,101449.31
2023-06-18T07:32:42.408Z,101449.16
2023-06-18T07:35:09.354Z,101483.00
2023-06-18T07:37:35.833Z,101484.16
2023-06-18T07:40:02.333Z,101455.00
2023-06-18T07:42:28.683Z,101452.31
2023-06-18T07:44:55.136Z,101445.94
2023-06-18T07:47:21.744Z,101450.16
2023-06-18T07:49:48.178Z,101466.91
2023-06-18T07:52:14.622Z,101455.38
2023-06-18T07:54:40.969Z,101450.00
2023-06-18T07:57:07.685Z,101453.34
2023-06-18T07:59:34.091Z,101455.75
2023-06-18T08:02:00.767Z,101448.38
2023-06-18T08:04:27.322Z,101442.84
2023-06-18T08:06:53.776Z,101446.22
2023-06-18T08:09:20.144Z,101447.91
2023-06-18T08:11:46.701Z,101449.44
2023-06-18T08:14:13.093Z,101444.06
2023-06-18T08:16:40.281Z,101444.72
2023-06-18T08:19:06.961Z,101434.69
2023-06-18T08:21:33.388Z,101429.03
2023-06-18T08:23:59.828Z,101440.13
2023-06-18T08:26:26.249Z,101430.75
2023-06-18T08:28:52.697Z,101438.47
2023-06-18T08:31:19.115Z,101431.94
2023-06-18T08:33:45.613Z,101422.75
2023-06-18T08:36:12.205Z,101420.06
2023-06-18T08:38:38.650Z,101428.47
2023-06-18T08:41:06.749Z,101422.81
2023-06-18T08:43:34.005Z,101417.13
2023-06-18T08:46:11.134Z,101420.50
2023-06-18T08:48:53.285Z,101416.78
2023-06-18T08:51:22.213Z,101408.44
2023-06-18T08:53:58.640Z,101408.97
2023-06-18T08:56:26.201Z,101411.31
2023-06-18T08:58:56.553Z,101405.13
2023-06-18T09:01:24.389Z,101402.25
2023-06-18T09:03:52.339Z,101408.44
2023-06-18T09:06:19.349Z,101409.84
2023-06-18T09:08:47.635Z,101406.66
2023-06-18T09:11:14.385Z,101411.69
2023-06-18T09:13:43.426Z,101415.72
2023-06-18T09:16:11.228Z,101418.06
2023-06-18T09:18:38.227Z,101415.22
2023-06-18T09:21:04.864Z,101411.53
2023-06-18T09:23:31.811Z,101420.94
2023-06-18T09:25:59.330Z,101422.44
2023-06-18T09:28:27.262Z,101415.91
2023-06-18T09:30:54.857Z,101412.22
2023-06-18T09:33:37.400Z,101413.91
2023-06-18T09:36:06.362Z,101409.22
2023-06-18T09:38:41.520Z,101405.22
2023-06-18T09:41:16.181Z,101409.06
2023-06-18T09:43:44.628Z,101410.56
2023-06-18T09:46:11.477Z,101403.22
2023-06-18T09:48:45.998Z,101396.66
2023-06-18T09:51:15.138Z,101393.63
2023-06-18T09:53:41.753Z,101398.00
2023-06-18T09:56:16.995Z,101393.88
2023-06-18T09:58:52.107Z,101392.50
2023-06-18T10:01:20.326Z,101391.00
2023-06-18T10:03:47.566Z,101398.56
2023-06-18T10:06:19.153Z,101396.69
2023-06-18T10:08:53.693Z,101399.88
2023-06-18T10:11:21.864Z,101396.03
2023-06-18T10:13:54.722Z,101393.84
2023-06-18T10:16:22.164Z,101391.31
2023-06-18T10:19:04.896Z,101398.03
2023-06-18T10:21:36.816Z,101394.16
2023-06-18T10:24:12.769Z,101393.16
2023-06-18T10:26:40.804Z,101379.56
2023-06-18T10:29:07.748Z,101382.09
2023-06-18T10:31:34.473Z,101372.84
2023-06-18T10:34:01.237Z,101373.31
2023-06-18T10:36:29.723Z,101385.44
2023-06-18T10:38:57.977Z,101387.94
2023-06-18T10:41:24.922Z,101372.66
2023-06-18T10:43:53.248Z,101374.31
2023-06-18T10:46:20.762Z,101365.25
2023-06-18T10:49:17.091Z,101368.78
2023-06-18T10:52:11.304Z,101367.78
2023-06-18T10:54:39.256Z,101364.91
2023-06-18T10:57:05.955Z,101364.91
2023-06-18T10:59:46.888Z,101367.78
2023-06-18T11:02:14.851Z,101366.59
2023-06-18T11:04:42.093Z,101367.41
2023-06-18T11:07:16.188Z,101370.09
2023-06-18T11:09:58.991Z,101365.59
2023-06-18T11:12:28.941Z,101373.28
2023-06-18T11:15:05.012Z,101365.91
2023-06-18T11:17:33.340Z,101372.09
2023-06-18T11:20:01.905Z,101367.59
2023-06-18T11:22:29.938Z,101367.59
2023-06-18T11:24:58.394Z,101362.22
2023-06-18T11:27:26.572Z,101365.72
2023-06-18T11:29:59.519Z,101361.72
2023-06-18T11:32:27.137Z,101359.53
2023-06-18T11:34:56.791Z,101364.06
2023-06-18T11:37:29.224Z,101360.53
2023-06-18T11:39:57.300Z,101353.31
2023-06-18T11:42:27.051Z,101358.69
2023-06-18T11:44:56.437Z,101353.16
2023-06-18T11:47:23.188Z,101347.09
2023-06-18T11:49:52.579Z,101343.91
2023-06-18T11:52:24.148Z,101338.53
2023-06-18T11:54:52.431Z,101339.34
2023-06-18T11:57:21.300Z,101328.28
2023-06-18T11:59:51.726Z,101336.34
2023-06-18T12:02:20.817Z,101328.97
2023-06-18T12:04:47.720Z,101326.94
2023-06-18T12:07:18.795Z,101334.00
2023-06-18T12:09:46.318Z,101338.38
2023-06-18T12:12:42.949Z,101346.25
2023-06-18T12:15:15.436Z,101342.56
2023-06-18T12:18:14.164Z,101332.47
2023-06-18T12:20:41.240Z,101329.63
2023-06-18T12:23:08.192Z,101326.06
2023-06-18T12:25:35.278Z,101328.59
2023-06-18T12:28:05.922Z,101324.41
2023-06-18T12:30:36.321Z,101319.00
2023-06-18T12:33:08.871Z,101318.00
2023-06-18T12:35:37.046Z,101318.88
2023-06-18T12:38:09.643Z,101313.63
2023-06-18T12:40:50.148Z,101319.19
2023-06-18T12:43:18.312Z,101319.88
2023-06-18T12:45:52.446Z,101319.88
2023-06-18T12:48:22.411Z,101322.56
2023-06-18T12:50:50.937Z,101318.88
2023-06-18T12:53:25.678Z,101313.50
2023-06-18T12:55:55.880Z,101307.94
2023-06-18T12:58:27.770Z,101309.63
2023-06-18T13:00:57.236Z,101312.13
2023-06-18T13:03:25.363Z,101314.81
2023-06-18T13:05:52.383Z,101314.81
2023-06-18T13:08:20.967Z,101312.94
2023-06-18T13:10:49.627Z,101320.19
2023-06-18T13:13:20.474Z,101317.50
2023-06-18T13:15:49.260Z,101312.13
2023-06-18T13:18:19.866Z,101308.56
2023-06-18T13:20:47.889Z,101310.44
2023-06-18T13:23:15.417Z,101304.06
2023-06-18T13:25:42.562Z,101304.25
2023-06-18T13:28:09.479Z,101299.00
2023-06-18T13:30:35.927Z,101294.69
2023-06-18T13:33:02.676Z,101290.31
2023-06-18T13:35:31.249Z,101283.25
2023-06-18T13:37:58.142Z,101288.44
2023-06-18T13:40:24.814Z,101292.31
2023-06-18T13:42:52.019Z,101296.69
2023-06-18T13:45:20.817Z,101295.69
2023-06-18T13:47:48.201Z,101296.50
2023-06-18T13:50:15.003Z,101286.75
2023-06-18T13:52:41.377Z,101288.25
2023-06-18T13:55:08.266Z,101295.31
2023-06-18T13:57:34.721Z,101287.63
2023-06-18T14:00:01.129Z,101278.88
2023-06-18T14:02:27.614Z,101274.34
2023-06-18T14:04:55.311Z,101268.31
2023-06-18T14:07:22.274Z,101268.50
2023-06-18T14:09:48.852Z,101262.75
2023-06-18T14:12:16.352Z,101265.25
2023-06-18T14:14:43.481Z,101265.09
2023-06-18T14:17:12.874Z,101262.41
2023-06-18T14:19:40.846Z,101254.00
2023-06-18T14:22:07.654Z,101258.34
2023-06-18T14:24:35.769Z,101259.38
2023-06-18T14:27:03.381Z,101257.34
2023-06-18T14:29:33.513Z,101255.66
2023-06-18T14:32:00.797Z,101251.31
2023-06-18T14:34:27.237Z,101251.66
2023-06-18T14:36:56.266Z,101242.94
2023-06-18T14:39:24.132Z,101247.47
2023-06-18T14:41:52.440Z,101238.56
2023-06-18T14:44:19.545Z,101242.25
2023-06-18T14:46:46.109Z,101249.50
2023-06-18T14:49:12.565Z,101236.25
2023-06-18T14:51:38.934Z,101242.44
2023-06-18T14:54:12.763Z,101237.91
2023-06-18T14:56:43.945Z,101243.28
2023-06-18T14:59:10.769Z,101241.25
2023-06-18T15:01:38.372Z,101237.56
2023-06-18T15:04:05.309Z,101234.88
2023-06-18T15:06:33.789Z,101232.38
2023-06-18T15:09:01.608Z,101227.81
2023-06-18T15:11:28.739Z,101215.38
2023-06-18T15:13:55.256Z,101216.41
2023-06-18T15:16:21.778Z,101207.50
2023-06-18T15:18:48.239Z,101213.72
2023-06-18T15:21:14.745Z,101212.69
2023-06-18T15:23:41.717Z,101214.38
2023-06-18T15:26:08.164Z,101214.19
2023-06-18T15:28:34.518Z,101221.06
2023-06-18T15:31:00.901Z,101219.03
2023-06-18T15:33:27.264Z,101226.28
2023-06-18T15:35:53.675Z,101227.94
2023-06-18T15:38:20.074Z,101228.13
2023-06-18T15:40:46.620Z,101233.00
2023-06-18T15:43:13.124Z,101242.75
2023-06-18T15:45:39.566Z,101227.63
2023-06-18T15:48:06.128Z,101240.06
2023-06-18T15:50:32.617Z,101225.78
2023-06-18T15:52:59.096Z,101229.66
2023-06-18T15:55:25.633Z,101243.13
2023-06-18T15:57:52.191Z,101245.81
2023-06-18T16:00:18.609Z,101239.75
2023-06-18T16:02:44.999Z,101250.69
2023-06-18T16:05:11.531Z,101248.00
2023-06-18T16:07:39.533Z,101240.75
2023-06-18T16:10:06.794Z,101239.09
2023-06-18T16:12:33.218Z,101233.88
2023-06-18T16:14:59.639Z,101236.91
2023-06-18T16:17:28.683Z,101236.03
2023-06-18T16:19:55.506Z,101223.66
2023-06-18T16:22:21.944Z,101218.44
2023-06-18T16:24:48.387Z,101214.72
2023-06-18T16:27:14.845Z,101212.22
2023-06-18T16:29:41.210Z,101208.72
2023-06-18T16:32:11.950Z,101212.41
2023-06-18T16:34:39.429Z,101205.84
2023-06-18T16:37:06.218Z,101206.03
2023-06-18T16:39:37.597Z,101212.91
2023-06-18T16:42:04.475Z,101211.91
2023-06-18T16:44:30.933Z,101217.28
2023-06-18T16:46:57.950Z,101210.94
2023-06-18T16:49:24.405Z,101200.41
2023-06-18T16:51:50.837Z,101181.63
2023-06-18T16:54:17.219Z,101179.81
2023-06-18T16:56:44.507Z,101174.25
2023-06-18T16:59:11.056Z,101172.25
2023-06-18T17:01:37.777Z,101171.38
2023-06-18T17:04:04.887Z,101165.69
2023-06-18T17:06:33.386Z,101174.19
2023-06-18T17:09:00.490Z,101179.56
2023-06-18T17:11:28.429Z,101183.13
2023-06-18T17:13:55.030Z,101167.81
2023-06-18T17:16:22.599Z,101173.19
2023-06-18T17:18:49.082Z,101178.56
2023-06-18T17:21:16.549Z,101176.88
2023-06-18T17:23:43.216Z,101172.38
2023-06-18T17:26:11.188Z,101168.81
2023-06-18T17:28:37.733Z,101165.31
2023-06-18T17:31:04.391Z,101159.13
2023-06-18T17:33:30.770Z,101150.75
2023-06-18T17:35:57.173Z,101155.97
2023-06-18T17:38:23.748Z,101150.59
2023-06-18T17:40:50.149Z,101135.66
2023-06-18T17:43:17.486Z,101121.28
2023-06-18T17:45:44.962Z,101123.97
2023-06-18T17:48:11.572Z,101123.97
2023-06-18T17:50:38.037Z,101124.78
2023-06-18T17:53:04.504Z,101124.97
2023-06-18T17:55:32.619Z,101120.97
2023-06-18T17:57:59.012Z,101115.09
2023-06-18T18:00:25.377Z,101112.94
2023-06-18T18:02:54.224Z,101109.59
2023-06-18T18:05:21.009Z,101104.25
2023-06-18T18:07:47.728Z,101104.38
2023-06-18T18:10:14.122Z,101099.56
2023-06-18T18:12:40.504Z,101093.34
2023-06-18T18:15:07.299Z,101089.81
2023-06-18T18:17:33.683Z,101082.44
2023-06-18T18:20:00.219Z,101084.28
2023-06-18T18:22:26.620Z,101081.78
2023-06-18T18:24:53.037Z,101075.56
2023-06-18T18:27:19.513Z,101067.88
2023-06-18T18:29:45.972Z,101063.34
2023-06-18T18:32:12.391Z,101063.34
2023-06-18T18:34:38.806Z,101062.50
2023-06-18T18:37:05.852Z,101060.16
2023-06-18T18:39:32.292Z,101058.31
2023-06-18T18:41:58.730Z,101066.38
2023-06-18T18:44:25.149Z,101069.88
2023-06-18T18:46:51.534Z,101076.09
2023-06-18T18:49:18.064Z,101068.88
2023-06-18T18:51:44.567Z,101067.88
2023-06-18T18:54:13.270Z,101064.66
2023-06-18T18:56:40.105Z,101062.63
2023-06-18T18:59:06.592Z,101063.81
2023-06-18T19:01:32.999Z,101059.66
2023-06-18T19:03:59.345Z,101072.88
2023-06-18T19:06:25.797Z,101064.34
2023-06-18T19:08:52.211Z,101063.03
2023-06-18T19:11:18.638Z,101056.50
2023-06-18T19:13:45.593Z,101068.06
2023-06-18T19:16:12.068Z,101065.69
2023-06-18T19:18:38.619Z,101064.69
2023-06-18T19:21:05.394Z,101071.94
2023-06-18T19:23:31.918Z,101064.88
2023-06-18T19:25:58.521Z,101065.38
2023-06-18T19:28:26.039Z,101074.06
2023-06-18T19:30:52.433Z,101074.75
2023-06-18T19:33:18.819Z,101077.44
2023-06-18T19:35:45.187Z,101081.28
2023-06-18T19:38:11.935Z,101084.81
2023-06-18T19:40:38.715Z,101085.81
2023-06-18T19:43:05.521Z,101091.19
2023-06-18T19:45:33.176Z,101091.19
2023-06-18T19:48:00.046Z,101085.50
2023-06-18T19:50:26.678Z,101087.84
2023-06-18T19:52:53.196Z,101087.53
2023-06-18T19:55:21.117Z,101092.25
2023-06-18T19:57:47.655Z,101086.91
2023-06-18T20:00:14.303Z,101089.59
2023-06-18T20:02:41.031Z,101085.22
2023-06-18T20:05:07.803Z,101083.91
2023-06-18T20:07:34.235Z,101083.72
2023-06-18T20:10:04.561Z,101078.53
2023-06-18T20:12:31.251Z,101073.00
2023-06-18T20:14:57.721Z,101068.81
2023-06-18T20:17:25.264Z,101068.16
2023-06-18T20:19:52.412Z,101063.28
2023-06-18T20:22:19.331Z,101065.47
2023-06-18T20:24:45.704Z,101062.13
2023-06-18T20:27:12.608Z,101067.47
2023-06-18T20:29:39.016Z,101065.81
2023-06-18T20:32:06.000Z,101063.97
2023-06-18T20:34:32.490Z,101061.47
2023-06-18T20:36:58.912Z,101064.16
2023-06-18T20:39:25.399Z,101059.28
2023-06-18T20:41:51.900Z,101060.63
2023-06-18T20:44:19.095Z,101054.75
2023-06-18T20:46:45.575Z,101062.44
2023-06-18T20:49:14.621Z,101067.31
2023-06-18T20:51:41.844Z,101065.63
2023-06-18T20:54:08.363Z,101068.97
2023-06-18T20:56:34.807Z,101059.06
2023-06-18T20:59:01.200Z,101054.72
2023-06-18T21:01:30.287Z,101052.38
2023-06-18T21:03:57.077Z,101045.53
2023-06-18T21:06:23.876Z,101036.50
2023-06-18T21:08:50.388Z,101042.88
2023-06-18T21:11:19.194Z,101038.34
2023-06-18T21:13:47.258Z,101033.34
2023-06-18T21:16:14.522Z,101033.16
2023-06-18T21:18:41.179Z,101024.59
2023-06-18T21:21:07.676Z,101028.78
2023-06-18T21:23:34.046Z,101022.25
2023-06-18T21:26:00.570Z,101015.69
2023-06-18T21:28:27.567Z,101020.25
2023-06-18T21:30:54.042Z,101020.06
2023-06-18T21:33:20.640Z,101022.56
2023-06-18T21:35:48.670Z,101010.00
2023-06-18T21:38:15.434Z,100998.78
2023-06-18T21:40:41.826Z,101006.00
2023-06-18T21:43:08.268Z,100999.78
2023-06-18T21:45:35.075Z,100988.25
2023-06-18T21:48:01.627Z,100998.78
2023-06-18T21:50:28.096Z,100993.44
2023-06-18T21:52:54.478Z,100984.56
2023-06-18T21:55:20.894Z,100965.28
2023-06-18T21:57:47.314Z,100970.66
2023-06-18T22:00:14.255Z,100974.97
2023-06-18T22:02:41.255Z,100977.66
2023-06-18T22:05:08.205Z,100966.13
2023-06-18T22:07:34.900Z,100966.13
2023-06-18T22:10:01.332Z,100959.25
2023-06-18T22:12:28.003Z,100956.25
2023-06-18T22:14:54.370Z,100949.88
2023-06-18T22:17:20.986Z,100953.22
2023-06-18T22:19:47.412Z,100947.84
2023-06-18T22:22:13.823Z,100944.16
2023-06-18T22:24:40.381Z,100935.47
2023-06-18T22:27:07.445Z,100927.75
2023-06-18T22:29:34.002Z,100923.09
2023-06-18T22:32:00.427Z,100923.59
2023-06-18T22:34:40.454Z,100919.41
2023-06-18T22:37:08.613Z,100911.34
2023-06-18T22:39:35.098Z,100899.81
2023-06-18T22:42:01.535Z,100880.69
2023-06-18T22:44:28.001Z,100885.75
2023-06-18T22:46:54.485Z,100874.34
2023-06-18T22:49:21.033Z,100882.94
2023-06-18T22:51:54.482Z,100868.03
2023-06-18T22:54:20.942Z,100868.19
2023-06-18T22:56:47.327Z,100869.53
2023-06-18T22:59:13.813Z,100855.44
2023-06-18T23:01:41.209Z,100853.97
2023-06-18T23:04:07.736Z,100859.50
2023-06-18T23:06:34.213Z,100860.81
2023-06-18T23:09:00.625Z,100861.50
2023-06-18T23:11:26.986Z,100872.84
2023-06-18T23:13:53.369Z,100880.72
2023-06-18T23:16:19.862Z,100877.03
2023-06-18T23:18:46.342Z,100877.88
2023-06-18T23:21:12.891Z,100874.16
2023-06-18T23:23:39.353Z,100873.16
2023-06-18T23:26:06.115Z,100876.03
2023-06-18T23:28:33.281Z,100881.56
2023-06-18T23:31:05.072Z,100887.75
2023-06-18T23:33:32.369Z,100882.56
2023-06-18T23:35:59.232Z,100886.75
2023-06-18T23:38:25.662Z,100882.22
2023-06-18T23:40:52.555Z,100877.22
2023-06-18T23:43:20.167Z,100873.03
2023-06-18T23:45:47.039Z,100873.84
2023-06-18T23:48:13.577Z,100865.00
2023-06-18T23:50:41.361Z,100865.16
2023-06-18T23:53:08.025Z,100867.84
2023-06-18T23:55:34.400Z,100859.81
2023-06-18T23:58:02.674Z,100872.22
